createdAt,value
2018-04-17T00:00:10.990Z,0.00
2018-04-17T00:01:10.973Z,0.00
2018-04-17T00:02:10.956Z,0.00
2018-04-17T00:03:10.936Z,0.00
2018-04-17T00:04:10.929Z,0.00
2018-04-17T00:05:10.901Z,0.00
2018-04-17T00:06:10.884Z,0.00
2018-04-17T00:07:10.871Z,0.00
2018-04-17T00:08:10.849Z,0.00
2018-04-17T00:09:10.831Z,0.00
2018-04-17T00:10:10.825Z,0.00
2018-04-17T00:11:10.803Z,0.00
2018-04-17T00:12:10.783Z,0.00
2018-04-17T00:13:10.768Z,0.00
2018-04-17T00:14:10.761Z,0.00
2018-04-17T00:15:10.741Z,0.00
2018-04-17T00:16:10.716Z,0.00
2018-04-17T00:17:10.697Z,0.00
2018-04-17T00:18:10.735Z,0.00
2018-04-17T00:19:10.662Z,0.00
2018-04-17T00:20:10.643Z,0.00
2018-04-17T00:21:10.626Z,0.00
2018-04-17T00:22:10.610Z,0.00
2018-04-17T00:23:10.592Z,0.00
2018-04-17T00:24:10.576Z,0.00
2018-04-17T00:25:10.555Z,0.00
2018-04-17T00:26:10.539Z,0.00
2018-04-17T00:27:10.526Z,0.00
2018-04-17T00:28:10.505Z,0.00
2018-04-17T00:29:10.487Z,0.00
2018-04-17T00:30:10.470Z,0.00
2018-04-17T00:31:10.577Z,0.00
2018-04-17T00:32:10.435Z,0.00
2018-04-17T00:33:10.421Z,0.00
2018-04-17T00:34:10.419Z,0.00
2018-04-17T00:35:10.383Z,0.00
2018-04-17T00:36:10.365Z,0.00
2018-04-17T00:37:10.350Z,0.00
2018-04-17T00:38:10.334Z,0.00
2018-04-17T00:39:10.312Z,0.00
2018-04-17T00:40:10.298Z,0.00
2018-04-17T00:41:10.283Z,0.00
2018-04-17T00:42:10.265Z,0.00
2018-04-17T00:43:10.243Z,0.00
2018-04-17T00:44:10.226Z,0.00
2018-04-17T00:45:10.213Z,0.00
2018-04-17T00:46:10.203Z,0.00
2018-04-17T00:47:10.176Z,0.00
2018-04-17T00:48:10.207Z,0.00
2018-04-17T00:49:10.145Z,0.00
2018-04-17T00:50:10.128Z,0.00
2018-04-17T00:51:10.106Z,0.00
2018-04-17T00:52:10.094Z,0.00
2018-04-17T00:53:10.136Z,0.00
2018-04-17T00:54:10.057Z,0.00
2018-04-17T00:55:10.036Z,0.00
2018-04-17T00:56:10.024Z,0.00
2018-04-17T00:57:10.005Z,0.00
2018-04-17T00:58:09.985Z,0.00
2018-04-17T00:59:09.967Z,0.00
2018-04-17T01:00:09.959Z,0.00
2018-04-17T01:01:10.037Z,0.00
2018-04-17T01:02:09.916Z,0.00
2018-04-17T01:03:09.909Z,0.00
2018-04-17T01:04:09.883Z,0.00
2018-04-17T01:05:09.864Z,0.00
2018-04-17T01:06:09.855Z,0.00
2018-04-17T01:07:09.834Z,0.00
2018-04-17T01:08:09.809Z,0.00
2018-04-17T01:09:09.793Z,0.00
2018-04-17T01:10:09.782Z,0.00
2018-04-17T01:11:09.760Z,0.00
2018-04-17T01:12:09.739Z,0.00
2018-04-17T01:13:09.718Z,0.00
2018-04-17T01:14:09.704Z,0.00
2018-04-17T01:15:09.687Z,0.00
2018-04-17T01:16:09.669Z,0.00
2018-04-17T01:17:09.652Z,0.00
2018-04-17T01:18:09.633Z,0.00
2018-04-17T01:19:09.616Z,0.00
2018-04-17T01:20:09.597Z,0.00
2018-04-17T01:21:09.576Z,0.00
2018-04-17T01:22:09.561Z,0.00
2018-04-17T01:23:09.543Z,0.00
2018-04-17T01:24:09.524Z,0.00
2018-04-17T01:25:09.507Z,0.00
2018-04-17T01:26:09.496Z,0.00
2018-04-17T01:27:09.471Z,0.00
2018-04-17T01:28:09.453Z,0.00
2018-04-17T01:29:09.442Z,0.00
2018-04-17T01:30:09.417Z,0.00
2018-04-17T01:31:09.399Z,0.00
2018-04-17T01:32:09.390Z,0.00
2018-04-17T01:33:09.363Z,0.00
2018-04-17T01:34:09.353Z,0.00
2018-04-17T01:35:09.328Z,0.00
2018-04-17T01:36:09.379Z,0.00
2018-04-17T01:37:09.292Z,0.00
2018-04-17T01:38:09.274Z,0.00
2018-04-17T01:39:09.267Z,0.00
2018-04-17T01:40:09.237Z,0.00
2018-04-17T01:41:09.218Z,0.00
2018-04-17T01:42:09.204Z,0.00
2018-04-17T01:43:09.183Z,0.00
2018-04-17T01:44:09.168Z,0.00
2018-04-17T01:45:09.147Z,0.00
2018-04-17T01:46:09.130Z,0.00
2018-04-17T01:47:09.112Z,0.00
2018-04-17T01:48:09.098Z,0.00
2018-04-17T01:49:09.077Z,0.00
2018-04-17T01:50:09.061Z,0.00
2018-04-17T01:51:09.043Z,0.00
2018-04-17T01:52:09.022Z,0.00
2018-04-17T01:53:09.009Z,0.00
2018-04-17T01:54:08.989Z,0.00
2018-04-17T01:55:08.971Z,0.00
2018-04-17T01:56:08.967Z,0.00
2018-04-17T01:57:08.945Z,0.00
2018-04-17T01:58:08.918Z,0.00
2018-04-17T01:59:08.898Z,0.00
2018-04-17T02:00:08.881Z,0.00
2018-04-17T02:01:08.867Z,0.00
2018-04-17T02:02:08.850Z,0.00
2018-04-17T02:03:08.951Z,0.00
2018-04-17T02:04:08.809Z,0.00
2018-04-17T02:05:08.792Z,0.00
2018-04-17T02:06:08.886Z,0.00
2018-04-17T02:07:08.760Z,0.00
2018-04-17T02:08:08.749Z,0.00
2018-04-17T02:09:08.724Z,0.00
2018-04-17T02:10:08.701Z,0.00
2018-04-17T02:11:08.687Z,0.00
2018-04-17T02:12:08.668Z,0.00
2018-04-17T02:13:08.652Z,0.00
2018-04-17T02:14:08.629Z,0.00
2018-04-17T02:15:08.612Z,0.00
2018-04-17T02:16:08.593Z,0.00
2018-04-17T02:17:08.578Z,0.00
2018-04-17T02:18:08.568Z,0.00
2018-04-17T02:19:08.544Z,0.00
2018-04-17T02:20:08.520Z,0.00
2018-04-17T02:21:08.502Z,0.00
2018-04-17T02:22:08.637Z,0.00
2018-04-17T02:23:08.468Z,0.00
2018-04-17T02:24:08.451Z,0.00
2018-04-17T02:25:08.482Z,0.00
2018-04-17T02:26:08.411Z,0.00
2018-04-17T02:27:08.393Z,0.00
2018-04-17T02:28:08.393Z,0.00
2018-04-17T02:29:08.375Z,0.00
2018-04-17T02:30:08.339Z,0.00
2018-04-17T02:31:08.320Z,0.00
2018-04-17T02:32:08.312Z,0.00
2018-04-17T02:33:08.283Z,0.00
2018-04-17T02:34:08.266Z,0.00
2018-04-17T02:35:08.249Z,0.00
2018-04-17T02:36:08.229Z,0.00
2018-04-17T02:37:08.211Z,0.00
2018-04-17T02:38:08.272Z,0.00
2018-04-17T02:39:08.177Z,0.00
2018-04-17T02:40:08.159Z,0.00
2018-04-17T02:41:08.141Z,0.00
2018-04-17T02:42:08.120Z,0.00
2018-04-17T02:43:08.101Z,0.00
2018-04-17T02:44:08.085Z,0.00
2018-04-17T02:45:08.065Z,0.00
2018-04-17T02:46:08.064Z,0.00
2018-04-17T02:47:08.031Z,0.00
2018-04-17T02:48:08.019Z,0.00
2018-04-17T02:49:07.994Z,0.00
2018-04-17T02:50:07.974Z,0.00
2018-04-17T02:51:07.954Z,0.00
2018-04-17T02:52:07.937Z,0.00
2018-04-17T02:53:07.915Z,0.00
2018-04-17T02:54:07.899Z,0.00
2018-04-17T02:55:07.883Z,0.00
2018-04-17T02:56:07.863Z,0.00
2018-04-17T02:57:07.843Z,0.00
2018-04-17T02:58:07.824Z,0.00
2018-04-17T02:59:07.807Z,0.00
2018-04-17T03:00:07.788Z,0.00
2018-04-17T03:01:07.772Z,0.00
2018-04-17T03:02:07.751Z,0.00
2018-04-17T03:03:07.734Z,0.00
2018-04-17T03:04:07.713Z,0.00
2018-04-17T03:05:07.716Z,0.00
2018-04-17T03:06:07.680Z,0.00
2018-04-17T03:07:07.671Z,0.00
2018-04-17T03:08:07.642Z,0.00
2018-04-17T03:09:07.629Z,0.00
2018-04-17T03:10:07.606Z,0.00
2018-04-17T03:11:07.585Z,0.00
2018-04-17T03:12:07.573Z,0.00
2018-04-17T03:13:07.546Z,0.00
2018-04-17T03:14:07.529Z,0.00
2018-04-17T03:15:07.511Z,0.00
2018-04-17T03:16:07.492Z,0.00
2018-04-17T03:17:07.476Z,0.00
2018-04-17T03:18:07.454Z,0.00
2018-04-17T03:19:07.441Z,0.00
2018-04-17T03:20:07.428Z,0.00
2018-04-17T03:21:07.559Z,0.00
2018-04-17T03:22:07.382Z,0.00
2018-04-17T03:23:07.362Z,0.00
2018-04-17T03:24:07.352Z,0.00
2018-04-17T03:25:07.324Z,0.00
2018-04-17T03:26:07.309Z,0.00
2018-04-17T03:27:07.289Z,0.00
2018-04-17T03:28:07.271Z,0.00
2018-04-17T03:29:07.253Z,0.00
2018-04-17T03:30:07.245Z,0.00
2018-04-17T03:31:07.213Z,0.00
2018-04-17T03:32:07.201Z,0.00
2018-04-17T03:33:07.177Z,0.00
2018-04-17T03:34:07.166Z,0.00
2018-04-17T03:35:07.140Z,0.00
2018-04-17T03:36:07.127Z,0.00
2018-04-17T03:37:07.146Z,0.00
2018-04-17T03:38:07.086Z,0.00
2018-04-17T03:40:03.526Z,0.00
2018-04-17T03:41:00.678Z,0.00
2018-04-17T03:42:00.663Z,0.00
2018-04-17T03:43:00.641Z,0.00
2018-04-17T03:44:00.625Z,0.00
2018-04-17T03:45:00.605Z,0.00
2018-04-17T03:46:00.588Z,0.00
2018-04-17T03:47:00.565Z,0.00
2018-04-17T03:48:00.543Z,0.00
2018-04-17T03:49:00.527Z,0.00
2018-04-17T03:50:00.507Z,0.00
2018-04-17T03:51:00.488Z,0.00
2018-04-17T03:52:00.473Z,0.00
2018-04-17T03:53:00.454Z,0.00
2018-04-17T03:54:00.443Z,0.00
2018-04-17T03:55:00.433Z,0.00
2018-04-17T03:56:00.393Z,0.00
2018-04-17T03:57:00.377Z,0.00
2018-04-17T03:58:00.358Z,0.00
2018-04-17T03:59:00.335Z,0.00
2018-04-17T04:00:00.334Z,0.00
2018-04-17T04:01:00.297Z,0.00
2018-04-17T04:02:00.294Z,0.00
2018-04-17T04:03:00.269Z,0.00
2018-04-17T04:04:00.242Z,0.00
2018-04-17T04:05:00.223Z,0.00
2018-04-17T04:06:00.207Z,0.00
2018-04-17T04:07:00.185Z,0.00
2018-04-17T04:08:00.166Z,0.00
2018-04-17T04:09:00.147Z,0.00
2018-04-17T04:10:00.140Z,0.00
2018-04-17T04:11:00.112Z,0.00
2018-04-17T04:12:00.091Z,0.00
2018-04-17T04:13:00.088Z,0.00
2018-04-17T04:14:00.055Z,0.00
2018-04-17T04:15:00.046Z,0.00
2018-04-17T04:16:00.016Z,0.00
2018-04-17T04:16:59.996Z,0.00
2018-04-17T04:17:59.980Z,0.00
2018-04-17T04:19:00.033Z,5.63
2018-04-17T04:19:59.953Z,5.63
2018-04-17T04:20:59.920Z,5.63
2018-04-17T04:21:59.903Z,5.63
2018-04-17T04:22:59.881Z,5.63
2018-04-17T04:23:59.891Z,5.63
2018-04-17T04:24:59.844Z,5.63
2018-04-17T04:25:59.829Z,11.25
2018-04-17T04:26:59.809Z,11.25
2018-04-17T04:27:59.789Z,11.25
2018-04-17T04:28:59.777Z,11.25
2018-04-17T04:29:59.763Z,11.25
2018-04-17T04:30:59.735Z,16.88
2018-04-17T04:31:59.713Z,16.88
2018-04-17T04:32:59.693Z,16.88
2018-04-17T04:33:59.678Z,16.88
2018-04-17T04:34:59.658Z,22.50
2018-04-17T04:35:59.649Z,22.50
2018-04-17T04:36:59.618Z,22.50
2018-04-17T04:37:59.617Z,28.13
2018-04-17T04:38:59.579Z,28.13
2018-04-17T04:39:59.569Z,33.75
2018-04-17T04:40:59.555Z,33.75
2018-04-17T04:41:59.526Z,33.75
2018-04-17T04:42:59.508Z,39.38
2018-04-17T04:43:59.488Z,39.38
2018-04-17T04:44:59.472Z,45.00
2018-04-17T04:45:59.564Z,45.00
2018-04-17T04:46:59.441Z,45.00
2018-04-17T04:47:59.418Z,50.63
2018-04-17T04:48:59.499Z,50.63
2018-04-17T04:49:59.377Z,56.25
2018-04-17T04:50:59.357Z,61.88
2018-04-17T04:51:59.389Z,61.88
2018-04-17T04:52:59.318Z,67.50
2018-04-17T04:53:59.299Z,67.50
2018-04-17T04:54:59.281Z,73.13
2018-04-17T04:55:59.266Z,73.13
2018-04-17T04:56:59.246Z,73.13
2018-04-17T04:57:59.228Z,73.13
2018-04-17T04:58:59.207Z,78.75
2018-04-17T04:59:59.188Z,84.38
2018-04-17T05:00:59.168Z,90.00
2018-04-17T05:01:59.153Z,90.00
2018-04-17T05:02:59.131Z,95.63
2018-04-17T05:03:59.114Z,95.63
2018-04-17T05:04:59.094Z,101.25
2018-04-17T05:05:59.075Z,101.25
2018-04-17T05:06:59.067Z,106.88
2018-04-17T05:07:59.139Z,112.50
2018-04-17T05:08:59.024Z,112.50
2018-04-17T05:09:58.999Z,118.13
2018-04-17T05:10:59.025Z,123.75
2018-04-17T05:11:58.964Z,123.75
2018-04-17T05:12:58.943Z,129.38
2018-04-17T05:13:58.937Z,135.00
2018-04-17T05:14:58.918Z,140.63
2018-04-17T05:15:58.889Z,140.63
2018-04-17T05:16:58.876Z,146.25
2018-04-17T05:17:58.855Z,151.88
2018-04-17T05:18:58.835Z,157.50
2018-04-17T05:19:58.834Z,157.50
2018-04-17T05:20:58.800Z,163.13
2018-04-17T05:21:58.780Z,168.75
2018-04-17T05:22:58.767Z,168.75
2018-04-17T05:23:58.766Z,174.38
2018-04-17T05:24:58.725Z,180.00
2018-04-17T05:25:58.706Z,185.63
2018-04-17T05:26:58.705Z,185.63
2018-04-17T05:27:58.676Z,191.25
2018-04-17T05:28:58.654Z,196.88
2018-04-17T05:29:58.634Z,202.50
2018-04-17T05:30:58.612Z,208.13
2018-04-17T05:31:58.596Z,219.38
2018-04-17T05:32:58.578Z,219.38
2018-04-17T05:33:58.572Z,225.00
2018-04-17T05:34:58.551Z,230.63
2018-04-17T05:35:58.526Z,236.25
2018-04-17T05:36:58.505Z,253.13
2018-04-17T05:37:58.491Z,253.13
2018-04-17T05:38:58.472Z,253.13
2018-04-17T05:39:58.453Z,258.75
2018-04-17T05:40:58.450Z,270.00
2018-04-17T05:41:58.426Z,348.75
2018-04-17T05:42:58.401Z,444.38
2018-04-17T05:43:58.382Z,500.63
2018-04-17T05:44:58.372Z,630.00
2018-04-17T05:45:58.354Z,714.38
2018-04-17T05:46:58.326Z,720.00
2018-04-17T05:47:58.318Z,736.88
2018-04-17T05:48:58.291Z,753.75
2018-04-17T05:49:58.275Z,725.63
2018-04-17T05:50:58.288Z,613.13
2018-04-17T05:51:58.244Z,680.63
2018-04-17T05:52:58.229Z,810.00
2018-04-17T05:53:58.233Z,832.50
2018-04-17T05:54:58.194Z,866.25
2018-04-17T05:55:58.205Z,883.13
2018-04-17T05:56:58.161Z,900.00
2018-04-17T05:57:58.148Z,900.00
2018-04-17T05:58:58.130Z,894.38
2018-04-17T05:59:58.113Z,894.38
2018-04-17T06:00:58.104Z,888.75
2018-04-17T06:01:58.090Z,849.38
2018-04-17T06:02:58.069Z,714.38
2018-04-17T06:03:58.053Z,703.13
2018-04-17T06:04:58.050Z,945.00
2018-04-17T06:05:58.028Z,1029.38
2018-04-17T06:06:58.065Z,1035.00
2018-04-17T06:07:57.995Z,1085.63
2018-04-17T06:08:57.988Z,1108.13
2018-04-17T06:09:57.979Z,1113.75
2018-04-17T06:10:57.955Z,1147.50
2018-04-17T06:11:57.951Z,1141.88
2018-04-17T06:12:57.932Z,1192.50
2018-04-17T06:13:57.912Z,1209.38
2018-04-17T06:14:57.899Z,1254.38
2018-04-17T06:15:57.896Z,1220.63
2018-04-17T06:16:57.874Z,1130.63
2018-04-17T06:17:57.863Z,1012.50
2018-04-17T06:18:57.848Z,961.88
2018-04-17T06:19:57.835Z,888.75
2018-04-17T06:20:57.834Z,821.25
2018-04-17T06:21:57.819Z,1023.75
2018-04-17T06:22:57.802Z,1113.75
2018-04-17T06:23:57.802Z,1068.75
2018-04-17T06:24:57.775Z,1051.88
2018-04-17T06:25:57.776Z,1181.25
2018-04-17T06:26:57.751Z,1243.13
2018-04-17T06:27:57.739Z,1254.38
2018-04-17T06:28:57.728Z,1226.25
2018-04-17T06:29:57.721Z,1192.50
2018-04-17T06:30:57.707Z,1186.88
2018-04-17T06:31:57.697Z,1153.13
2018-04-17T06:32:57.682Z,1091.25
2018-04-17T06:33:57.711Z,1035.00
2018-04-17T06:34:57.696Z,793.13
2018-04-17T06:35:57.649Z,630.00
2018-04-17T06:36:57.639Z,624.38
2018-04-17T06:37:57.635Z,680.63
2018-04-17T06:38:57.620Z,663.75
2018-04-17T06:39:57.606Z,562.50
2018-04-17T06:40:57.596Z,826.88
2018-04-17T06:41:57.606Z,973.13
2018-04-17T06:42:57.574Z,1164.38
2018-04-17T06:43:57.565Z,1046.25
2018-04-17T06:44:57.554Z,1220.63
2018-04-17T06:45:57.541Z,922.50
2018-04-17T06:46:57.547Z,720.00
2018-04-17T06:47:57.516Z,691.88
2018-04-17T06:48:57.506Z,635.63
2018-04-17T06:49:57.505Z,562.50
2018-04-17T06:50:57.488Z,506.25
2018-04-17T06:51:57.474Z,478.13
2018-04-17T06:52:57.468Z,472.50
2018-04-17T06:53:57.453Z,472.50
2018-04-17T06:54:57.439Z,472.50
2018-04-17T06:55:57.426Z,472.50
2018-04-17T06:56:57.414Z,472.50
2018-04-17T06:57:57.426Z,472.50
2018-04-17T06:58:57.392Z,478.13
2018-04-17T06:59:57.383Z,478.13
2018-04-17T07:00:57.366Z,478.13
2018-04-17T07:01:57.354Z,489.38
2018-04-17T07:02:57.479Z,495.00
2018-04-17T07:03:57.331Z,534.38
2018-04-17T07:04:57.316Z,686.25
2018-04-17T07:05:57.312Z,731.25
2018-04-17T07:06:57.286Z,652.50
2018-04-17T07:07:57.282Z,562.50
2018-04-17T07:08:57.271Z,680.63
2018-04-17T07:09:57.252Z,978.75
2018-04-17T07:10:57.245Z,1198.13
2018-04-17T07:11:57.224Z,1203.75
2018-04-17T07:12:57.220Z,1147.50
2018-04-17T07:13:57.198Z,900.00
2018-04-17T07:14:57.185Z,826.88
2018-04-17T07:15:57.177Z,1018.13
2018-04-17T07:16:57.198Z,1428.75
2018-04-17T07:17:57.154Z,1383.75
2018-04-17T07:18:57.151Z,1524.38
2018-04-17T07:19:57.124Z,1434.38
2018-04-17T07:20:57.116Z,855.00
2018-04-17T07:21:57.105Z,776.25
2018-04-17T07:22:57.086Z,810.00
2018-04-17T07:23:57.073Z,961.88
2018-04-17T07:24:57.061Z,1057.50
2018-04-17T07:25:57.046Z,1158.75
2018-04-17T07:26:57.094Z,1575.00
2018-04-17T07:27:57.025Z,1305.00
2018-04-17T07:28:57.015Z,1091.25
2018-04-17T07:29:59.683Z,1051.88
2018-04-17T07:31:42.477Z,1620.00
2018-04-17T07:32:42.335Z,1771.88
2018-04-17T07:33:42.318Z,1389.38
2018-04-17T07:34:42.323Z,1051.88
2018-04-17T07:35:42.289Z,1828.13
2018-04-17T07:36:42.280Z,1552.50
2018-04-17T07:37:42.274Z,883.13
2018-04-17T07:38:42.260Z,911.25
2018-04-17T07:39:42.250Z,939.38
2018-04-17T07:40:42.250Z,1063.13
2018-04-17T07:41:42.229Z,1068.75
2018-04-17T07:42:42.227Z,1102.50
2018-04-17T07:43:42.208Z,2351.25
2018-04-17T07:44:42.205Z,2261.25
2018-04-17T07:45:42.192Z,2193.75
2018-04-17T07:46:42.197Z,2205.00
2018-04-17T07:47:42.179Z,2176.88
2018-04-17T07:48:42.159Z,1951.88
2018-04-17T07:49:42.148Z,1861.88
2018-04-17T07:50:42.150Z,1462.50
2018-04-17T07:51:42.145Z,1597.50
2018-04-17T07:52:42.120Z,1530.00
2018-04-17T07:53:42.113Z,1136.25
2018-04-17T07:54:42.111Z,1501.88
2018-04-17T07:55:42.153Z,1203.75
2018-04-17T07:56:42.087Z,1428.75
2018-04-17T07:57:42.091Z,1563.75
2018-04-17T07:58:42.124Z,1350.00
2018-04-17T07:59:42.058Z,1096.88
2018-04-17T08:00:42.057Z,1310.63
2018-04-17T08:01:42.040Z,866.25
2018-04-17T08:02:42.037Z,1074.38
2018-04-17T08:03:42.025Z,1035.00
2018-04-17T08:04:42.022Z,888.75
2018-04-17T08:05:42.009Z,995.63
2018-04-17T08:06:41.998Z,1141.88
2018-04-17T08:07:41.988Z,1006.88
2018-04-17T08:08:41.981Z,967.50
2018-04-17T08:09:41.980Z,1147.50
2018-04-17T08:10:41.972Z,1080.00
2018-04-17T08:11:42.022Z,1018.13
2018-04-17T08:12:41.957Z,2351.25
2018-04-17T08:13:41.937Z,2542.50
2018-04-17T08:14:41.928Z,2688.75
2018-04-17T08:15:41.921Z,2047.50
2018-04-17T08:16:41.919Z,1108.13
2018-04-17T08:17:41.904Z,916.88
2018-04-17T08:18:41.894Z,810.00
2018-04-17T08:19:41.890Z,1023.75
2018-04-17T08:20:41.878Z,1771.88
2018-04-17T08:21:41.970Z,2368.13
2018-04-17T08:22:41.873Z,1305.00
2018-04-17T08:23:41.864Z,967.50
2018-04-17T08:24:41.915Z,905.63
2018-04-17T08:25:41.838Z,1861.88
2018-04-17T08:26:41.834Z,1518.75
2018-04-17T08:27:41.837Z,1530.00
2018-04-17T08:28:41.818Z,826.88
2018-04-17T08:29:41.815Z,725.63
2018-04-17T08:30:41.798Z,753.75
2018-04-17T08:31:41.793Z,798.75
2018-04-17T08:32:41.792Z,669.38
2018-04-17T08:33:41.778Z,1350.00
2018-04-17T08:34:41.776Z,1147.50
2018-04-17T08:35:41.762Z,748.13
2018-04-17T08:36:41.753Z,798.75
2018-04-17T08:37:41.746Z,742.50
2018-04-17T08:38:41.743Z,855.00
2018-04-17T08:39:41.724Z,1355.63
2018-04-17T08:40:41.718Z,1591.88
2018-04-17T08:41:41.711Z,1496.25
2018-04-17T08:42:41.711Z,1130.63
2018-04-17T08:43:41.697Z,770.63
2018-04-17T08:44:41.692Z,1046.25
2018-04-17T08:45:41.676Z,781.88
2018-04-17T08:46:41.667Z,793.13
2018-04-17T08:47:41.662Z,787.50
2018-04-17T08:48:41.651Z,826.88
2018-04-17T08:49:41.644Z,832.50
2018-04-17T08:50:41.652Z,888.75
2018-04-17T08:51:41.626Z,815.63
2018-04-17T08:52:41.620Z,826.88
2018-04-17T08:53:41.618Z,1001.25
2018-04-17T08:54:41.600Z,1310.63
2018-04-17T08:55:41.597Z,1321.88
2018-04-17T08:56:41.584Z,1991.25
2018-04-17T08:57:41.581Z,2407.50
2018-04-17T08:58:41.579Z,2255.63
2018-04-17T08:59:41.613Z,2671.88
2018-04-17T09:00:41.554Z,2733.75
2018-04-17T09:01:41.546Z,2362.50
2018-04-17T09:02:41.548Z,1788.75
2018-04-17T09:03:41.532Z,1783.13
2018-04-17T09:04:41.524Z,1715.63
2018-04-17T09:05:41.529Z,1462.50
2018-04-17T09:06:41.511Z,1074.38
2018-04-17T09:07:41.516Z,905.63
2018-04-17T09:08:41.514Z,911.25
2018-04-17T09:09:41.491Z,2160.00
2018-04-17T09:10:41.483Z,2221.88
2018-04-17T09:11:41.485Z,2874.38
2018-04-17T09:12:41.472Z,3127.50
2018-04-17T09:13:41.471Z,3217.50
2018-04-17T09:14:41.461Z,3178.13
2018-04-17T09:15:41.458Z,1417.50
2018-04-17T09:16:41.463Z,1845.00
2018-04-17T09:17:41.448Z,1434.38
2018-04-17T09:18:41.440Z,1372.50
2018-04-17T09:19:41.440Z,1670.63
2018-04-17T09:20:41.435Z,1378.13
2018-04-17T09:21:41.432Z,2683.13
2018-04-17T09:22:41.423Z,2745.00
2018-04-17T09:23:41.418Z,3200.63
2018-04-17T09:24:41.414Z,3318.75
2018-04-17T09:25:41.413Z,3313.13
2018-04-17T09:26:41.422Z,3515.63
2018-04-17T09:27:41.402Z,3667.50
2018-04-17T09:28:41.409Z,3296.25
2018-04-17T09:29:41.396Z,2199.38
2018-04-17T09:30:41.390Z,2075.63
2018-04-17T09:31:41.399Z,2103.75
2018-04-17T09:32:41.382Z,1861.88
2018-04-17T09:33:41.382Z,2525.63
2018-04-17T09:34:41.377Z,2446.88
2018-04-17T09:35:41.373Z,3442.50
2018-04-17T09:36:41.374Z,3088.13
2018-04-17T09:37:41.368Z,3121.88
2018-04-17T09:38:41.366Z,2542.50
2018-04-17T09:39:41.366Z,3026.25
2018-04-17T09:40:41.373Z,3363.75
2018-04-17T09:41:41.359Z,3436.88
2018-04-17T09:42:41.356Z,3386.25
2018-04-17T09:43:41.363Z,3470.63
2018-04-17T09:44:41.377Z,3318.75
2018-04-17T09:45:41.356Z,3346.88
2018-04-17T09:46:41.354Z,3510.00
2018-04-17T09:47:41.349Z,3341.25
2018-04-17T09:48:41.349Z,3588.75
2018-04-17T09:49:41.348Z,3684.38
2018-04-17T09:50:41.353Z,3369.38
2018-04-17T09:51:41.349Z,3555.00
2018-04-17T09:52:41.345Z,3453.75
2018-04-17T09:53:41.346Z,1918.13
2018-04-17T09:54:41.345Z,3200.63
2018-04-17T09:55:41.346Z,3228.75
2018-04-17T09:56:41.346Z,3279.38
2018-04-17T09:57:41.368Z,3217.50
2018-04-17T09:58:41.345Z,3240.00
2018-04-17T09:59:41.349Z,3397.50
2018-04-17T10:00:41.353Z,3155.63
2018-04-17T10:01:41.357Z,2857.50
2018-04-17T10:02:41.352Z,2626.88
2018-04-17T10:03:41.353Z,2728.13
2018-04-17T10:04:41.358Z,2480.63
2018-04-17T10:05:41.361Z,2610.00
2018-04-17T10:06:41.362Z,2632.50
2018-04-17T10:07:41.366Z,2925.00
2018-04-17T10:08:41.362Z,2812.50
2018-04-17T10:09:41.361Z,3127.50
2018-04-17T10:10:41.463Z,3313.13
2018-04-17T10:11:41.371Z,3330.00
2018-04-17T10:12:41.371Z,3223.13
2018-04-17T10:13:41.364Z,3268.13
2018-04-17T10:14:41.365Z,3386.25
2018-04-17T10:15:41.378Z,3403.13
2018-04-17T10:16:41.371Z,3307.50
2018-04-17T10:17:41.384Z,3110.63
2018-04-17T10:18:41.371Z,3172.50
2018-04-17T10:19:41.384Z,3200.63
2018-04-17T10:20:41.376Z,3121.88
2018-04-17T10:21:41.382Z,3150.00
2018-04-17T10:22:41.386Z,3211.88
2018-04-17T10:23:41.384Z,3189.38
2018-04-17T10:24:41.380Z,3234.38
2018-04-17T10:25:41.393Z,3048.75
2018-04-17T10:26:41.387Z,3144.38
2018-04-17T10:27:41.492Z,3346.88
2018-04-17T10:28:41.400Z,3273.75
2018-04-17T10:29:41.390Z,3245.63
2018-04-17T10:30:41.393Z,3313.13
2018-04-17T10:31:41.396Z,3133.13
2018-04-17T10:32:41.424Z,3290.63
2018-04-17T10:33:41.400Z,3088.13
2018-04-17T10:34:41.402Z,2919.38
2018-04-17T10:35:41.406Z,3285.00
2018-04-17T10:36:41.405Z,1890.00
2018-04-17T10:37:41.411Z,1091.25
2018-04-17T10:38:41.411Z,1231.88
2018-04-17T10:39:41.468Z,3279.38
2018-04-17T10:40:41.412Z,3369.38
2018-04-17T10:41:41.428Z,2767.50
2018-04-17T10:42:41.452Z,3391.88
2018-04-17T10:43:41.418Z,3358.13
2018-04-17T10:44:41.426Z,3391.88
2018-04-17T10:45:41.423Z,3307.50
2018-04-17T10:46:41.422Z,3436.88
2018-04-17T10:47:41.432Z,2559.38
2018-04-17T10:48:41.427Z,3335.63
2018-04-17T10:49:41.427Z,3425.63
2018-04-17T10:50:41.427Z,3521.25
2018-04-17T10:51:41.434Z,3498.75
2018-04-17T10:52:41.436Z,3571.88
2018-04-17T10:53:41.432Z,3448.13
2018-04-17T10:54:41.444Z,3330.00
2018-04-17T10:55:41.437Z,3155.63
2018-04-17T10:56:41.437Z,1203.75
2018-04-17T10:57:41.439Z,3408.75
2018-04-17T10:58:41.446Z,1738.13
2018-04-17T10:59:41.492Z,2244.38
2018-04-17T11:00:41.454Z,2379.38
2018-04-17T11:01:41.447Z,3571.88
2018-04-17T11:02:41.459Z,3358.13
2018-04-17T11:03:41.453Z,3510.00
2018-04-17T11:04:41.452Z,3324.38
2018-04-17T11:05:41.458Z,3166.88
2018-04-17T11:06:41.459Z,3116.25
2018-04-17T11:07:41.467Z,2981.25
2018-04-17T11:08:41.458Z,3150.00
2018-04-17T11:09:41.461Z,3330.00
2018-04-17T11:10:41.464Z,3138.75
2018-04-17T11:11:41.467Z,2998.13
2018-04-17T11:12:41.481Z,3043.13
2018-04-17T11:13:41.479Z,2919.38
2018-04-17T11:14:41.468Z,3003.75
2018-04-17T11:15:41.469Z,2992.50
2018-04-17T11:16:41.474Z,3155.63
2018-04-17T11:17:41.483Z,3301.88
2018-04-17T11:18:41.492Z,3369.38
2018-04-17T11:19:41.493Z,3093.75
2018-04-17T11:20:41.485Z,3031.88
2018-04-17T11:21:41.487Z,3313.13
2018-04-17T11:22:41.589Z,3228.75
2018-04-17T11:23:41.494Z,3178.13
2018-04-17T11:24:41.501Z,3234.38
2018-04-17T11:25:41.496Z,3060.00
2018-04-17T11:26:41.495Z,3268.13
2018-04-17T11:27:41.497Z,3335.63
2018-04-17T11:28:41.508Z,3346.88
2018-04-17T11:29:41.503Z,3391.88
2018-04-17T11:30:41.503Z,3352.50
2018-04-17T11:31:41.504Z,3240.00
2018-04-17T11:32:41.537Z,3037.50
2018-04-17T11:33:41.512Z,3155.63
2018-04-17T11:34:41.532Z,3155.63
2018-04-17T11:35:41.513Z,3172.50
2018-04-17T11:36:41.512Z,3245.63
2018-04-17T11:37:41.512Z,3161.25
2018-04-17T11:38:41.522Z,3285.00
2018-04-17T11:39:41.849Z,3234.38
2018-04-17T11:40:41.515Z,2919.38
2018-04-17T11:41:41.517Z,2874.38
2018-04-17T11:42:41.528Z,2930.63
2018-04-17T11:43:41.521Z,2936.25
2018-04-17T11:44:41.518Z,2863.13
2018-04-17T11:45:41.529Z,2857.50
2018-04-17T11:46:41.521Z,2818.13
2018-04-17T11:47:41.521Z,1811.25
2018-04-17T11:48:41.565Z,871.88
2018-04-17T11:49:41.521Z,765.00
2018-04-17T11:50:41.522Z,725.63
2018-04-17T11:51:41.520Z,703.13
2018-04-17T11:52:41.532Z,680.63
2018-04-17T11:53:41.522Z,663.75
2018-04-17T11:54:41.516Z,663.75
2018-04-17T11:55:41.566Z,658.13
2018-04-17T11:56:41.541Z,646.88
2018-04-17T11:57:41.514Z,630.00
2018-04-17T11:58:41.521Z,607.50
2018-04-17T11:59:41.508Z,590.63
2018-04-17T12:00:41.510Z,573.75
2018-04-17T12:01:41.504Z,562.50
2018-04-17T12:02:41.502Z,556.88
2018-04-17T12:03:41.501Z,551.25
2018-04-17T12:04:41.503Z,545.63
2018-04-17T12:05:41.498Z,545.63
2018-04-17T12:06:41.490Z,540.00
2018-04-17T12:07:41.492Z,534.38
2018-04-17T12:08:41.489Z,528.75
2018-04-17T12:09:41.481Z,523.13
2018-04-17T12:10:41.479Z,511.88
2018-04-17T12:11:41.478Z,500.63
2018-04-17T12:12:41.470Z,489.38
2018-04-17T12:13:41.567Z,495.00
2018-04-17T12:14:41.483Z,489.38
2018-04-17T12:15:41.450Z,483.75
2018-04-17T12:16:41.457Z,483.75
2018-04-17T12:17:41.439Z,478.13
2018-04-17T12:18:41.432Z,472.50
2018-04-17T12:19:41.427Z,472.50
2018-04-17T12:20:41.422Z,478.13
2018-04-17T12:21:41.418Z,466.88
2018-04-17T12:22:41.411Z,466.88
2018-04-17T12:23:41.401Z,466.88
2018-04-17T12:24:41.396Z,466.88
2018-04-17T12:25:41.396Z,461.25
2018-04-17T12:26:41.435Z,461.25
2018-04-17T12:27:41.380Z,461.25
2018-04-17T12:28:41.374Z,461.25
2018-04-17T12:29:41.367Z,461.25
2018-04-17T12:30:41.358Z,461.25
2018-04-17T12:31:41.346Z,461.25
2018-04-17T12:32:41.339Z,455.63
2018-04-17T12:33:41.427Z,455.63
2018-04-17T12:34:41.346Z,450.00
2018-04-17T12:35:41.316Z,444.38
2018-04-17T12:36:41.315Z,427.50
2018-04-17T12:37:41.296Z,433.13
2018-04-17T12:38:41.289Z,438.75